Skip Navigation LinksHome page > Weather > Current weather Skip Navigation Links

Current Weather

Ndjamena, Chad

For information only: do not use for flight planning or navigation.
Latest weather
Observation time Monday, July 6, 2015 12:00 PM WAT
Local time Monday, July 6, 2015 12:39 PM WAT
Flight conditions Visual Meteorological Conditions
Winds
Wind direction West-Southwest (240°)
Wind speed 5 mph
Visibility 6.2 mi.
Sky condition
Ceiling unlimited
Cloud layer few clouds 4,000 ft.
Cloud layer scattered clouds 10,000 ft.
Temperature 93°F
Dewpoint 75°F
Altimeter 29.88 in.Hg
Derived measurements
Relative humidity 56%
Heat index 105°F
Density altitude 2896 ft.
Remarks
No significant changes expected in the next two hours.
METAR FTTJ 061100Z 24004KT 9999 FEW040 SCT100 34/24 Q1012 NOSIG

Settings

Location code

InnerDrive.Weather 4.0.5567.0 Release CLR 4.0.30319.34014
Copyright ©2015 Inner Drive Technology. All rights reserved. Portions Copyright ©1986-2015 David Braverman.

Find weather

Site navigation


Skip Navigation Links

Place info

Page info

PayPal - The safer, easier way to pay online!

Return home.

Copyright ©2015 Inner Drive Technology. Purveyors of fine, hand-crafted computer software. Page printed 2015-07-06T11:39:05 UTC.